createdAt,value
2018-08-06T00:01:22.969Z,67.10
2018-08-06T00:03:51.222Z,67.00
2018-08-06T00:06:19.552Z,67.00
2018-08-06T00:08:47.926Z,66.90
2018-08-06T00:11:16.336Z,66.80
2018-08-06T00:13:45.604Z,67.60
2018-08-06T00:16:13.944Z,68.10
2018-08-06T00:18:42.487Z,67.90
2018-08-06T00:21:10.935Z,67.30
2018-08-06T00:23:39.217Z,67.30
2018-08-06T00:26:07.532Z,67.00
2018-08-06T00:28:35.790Z,66.40
2018-08-06T00:31:04.030Z,66.20
2018-08-06T00:33:32.345Z,65.70
2018-08-06T00:36:00.693Z,65.80
2018-08-06T00:38:28.990Z,65.90
2018-08-06T00:40:57.235Z,65.80
2018-08-06T00:43:25.520Z,65.30
2018-08-06T00:45:53.857Z,65.50
2018-08-06T00:48:22.312Z,65.60
2018-08-06T00:50:50.557Z,65.90
2018-08-06T00:53:18.820Z,66.60
2018-08-06T00:55:47.103Z,66.80
2018-08-06T00:58:15.332Z,66.90
2018-08-06T01:00:43.656Z,67.70
2018-08-06T01:05:40.022Z,67.50
2018-08-06T01:08:08.362Z,68.00
2018-08-06T01:10:36.610Z,68.70
2018-08-06T01:13:04.905Z,68.20
2018-08-06T01:15:33.205Z,68.20
2018-08-06T01:18:01.450Z,67.90
2018-08-06T01:20:29.713Z,68.10
2018-08-06T01:23:11.012Z,68.50
2018-08-06T01:25:39.289Z,68.20
2018-08-06T01:28:07.633Z,68.20
2018-08-06T01:30:35.892Z,68.30
2018-08-06T01:33:04.167Z,67.90
2018-08-06T01:35:32.458Z,67.50
2018-08-06T01:38:00.722Z,67.10
2018-08-06T01:40:29.132Z,67.50
2018-08-06T01:42:57.398Z,67.70
2018-08-06T01:45:25.639Z,67.70
2018-08-06T01:47:53.874Z,68.10
2018-08-06T01:50:22.154Z,68.00
2018-08-06T01:52:50.540Z,68.50
2018-08-06T01:55:18.814Z,68.50
2018-08-06T01:57:47.124Z,68.70
2018-08-06T02:00:16.452Z,69.00
2018-08-06T02:02:44.923Z,68.60
2018-08-06T02:05:13.240Z,68.40
2018-08-06T02:07:41.876Z,68.80
2018-08-06T02:10:12.421Z,68.70
2018-08-06T02:12:41.098Z,68.90
2018-08-06T02:15:11.100Z,68.80
2018-08-06T02:17:39.678Z,68.80
2018-08-06T02:20:09.872Z,69.00
2018-08-06T02:22:38.814Z,68.90
2018-08-06T02:25:08.315Z,69.90
2018-08-06T02:27:37.030Z,69.90
2018-08-06T02:30:08.910Z,69.60
2018-08-06T02:32:37.217Z,69.00
2018-08-06T02:35:06.813Z,68.80
2018-08-06T02:37:35.110Z,68.60
2018-08-06T02:40:03.613Z,68.40
2018-08-06T02:42:31.854Z,68.00
2018-08-06T02:45:00.108Z,68.30
2018-08-06T02:47:29.348Z,68.20
2018-08-06T02:49:57.590Z,68.00
2018-08-06T02:52:25.901Z,67.80
2018-08-06T02:54:54.244Z,67.80
2018-08-06T02:57:22.987Z,68.00
2018-08-06T02:59:51.225Z,67.70
2018-08-06T03:02:19.488Z,68.00
2018-08-06T03:04:47.758Z,67.40
2018-08-06T03:07:16.069Z,67.60
2018-08-06T03:09:44.329Z,67.40
2018-08-06T03:12:13.294Z,67.80
2018-08-06T03:14:41.641Z,68.50
2018-08-06T03:17:09.961Z,68.70
2018-08-06T03:19:38.313Z,68.30
2018-08-06T03:22:06.901Z,68.60
2018-08-06T03:24:35.132Z,68.80
2018-08-06T03:27:03.443Z,68.50
2018-08-06T03:29:32.038Z,68.00
2018-08-06T03:32:00.290Z,67.60
2018-08-06T03:34:28.604Z,67.50
2018-08-06T03:36:56.872Z,67.50
2018-08-06T03:39:25.175Z,67.60
2018-08-06T03:41:53.436Z,68.10
2018-08-06T03:44:21.714Z,68.60
2018-08-06T03:46:49.969Z,68.40
2018-08-06T03:49:18.245Z,68.40
2018-08-06T03:51:47.165Z,68.80
2018-08-06T03:54:15.409Z,67.90
2018-08-06T03:56:43.694Z,67.80
2018-08-06T03:59:12.022Z,68.10
2018-08-06T04:01:41.140Z,68.10
2018-08-06T04:04:09.410Z,68.20
2018-08-06T04:06:37.653Z,68.40
2018-08-06T04:09:07.293Z,68.60
2018-08-06T04:11:35.569Z,69.40
2018-08-06T04:14:03.869Z,68.30
2018-08-06T04:16:38.750Z,68.90
2018-08-06T04:19:07.864Z,68.30
2018-08-06T04:21:36.117Z,68.20
2018-08-06T04:24:04.388Z,68.30
2018-08-06T04:26:32.641Z,68.10
2018-08-06T04:29:00.909Z,68.40
2018-08-06T04:31:29.193Z,68.50
2018-08-06T04:33:57.519Z,68.60
2018-08-06T04:36:25.839Z,68.30
2018-08-06T04:38:54.460Z,68.30
2018-08-06T04:41:22.743Z,68.60
2018-08-06T04:43:51.017Z,68.70
2018-08-06T04:46:20.147Z,68.80
2018-08-06T04:48:48.889Z,68.70
2018-08-06T04:51:17.158Z,68.60
2018-08-06T04:53:45.490Z,68.70
2018-08-06T04:56:13.783Z,68.20
2018-08-06T04:58:42.142Z,68.10
2018-08-06T05:01:11.197Z,67.90
2018-08-06T05:03:39.437Z,68.00
2018-08-06T05:06:07.949Z,67.70
2018-08-06T05:08:38.031Z,67.50
2018-08-06T05:11:06.367Z,67.20
2018-08-06T05:13:34.685Z,66.90
2018-08-06T05:16:02.996Z,66.70
2018-08-06T05:18:31.375Z,66.80
2018-08-06T05:20:59.655Z,66.60
2018-08-06T05:23:35.572Z,66.90
2018-08-06T05:26:03.851Z,67.20
2018-08-06T05:28:32.156Z,66.80
2018-08-06T05:31:00.581Z,67.90
2018-08-06T05:33:29.173Z,67.40
2018-08-06T05:35:57.475Z,67.80
2018-08-06T05:38:26.148Z,67.10
2018-08-06T05:40:54.464Z,67.30
2018-08-06T05:43:22.768Z,67.10
2018-08-06T05:45:51.061Z,66.60
2018-08-06T05:48:19.335Z,66.60
2018-08-06T05:50:47.619Z,66.10
2018-08-06T05:53:15.969Z,65.80
2018-08-06T05:55:44.322Z,62.20
2018-08-06T05:58:12.864Z,59.10
2018-08-06T06:00:41.174Z,54.70
2018-08-06T06:03:09.423Z,53.50
2018-08-06T06:08:08.818Z,51.10
2018-08-06T06:10:37.169Z,49.30
2018-08-06T06:13:05.779Z,48.90
2018-08-06T06:15:34.018Z,48.00
2018-08-06T06:18:02.321Z,47.70
2018-08-06T06:20:30.588Z,46.30
2018-08-06T06:22:59.073Z,47.70
2018-08-06T06:25:27.532Z,46.40
2018-08-06T06:27:56.093Z,47.80
2018-08-06T06:30:24.510Z,45.70
2018-08-06T06:32:52.766Z,47.70
2018-08-06T06:35:21.055Z,45.70
2018-08-06T06:37:49.365Z,45.70
2018-08-06T06:40:17.734Z,45.80
2018-08-06T06:42:46.108Z,45.80
2018-08-06T06:45:14.421Z,43.80
2018-08-06T06:47:42.799Z,44.60
2018-08-06T06:50:11.153Z,45.90
2018-08-06T06:52:39.491Z,45.20
2018-08-06T06:55:09.515Z,44.60
2018-08-06T06:57:37.919Z,45.60
2018-08-06T07:00:08.030Z,45.50
2018-08-06T07:02:36.431Z,44.40
2018-08-06T07:05:04.738Z,43.40
2018-08-06T07:07:33.250Z,43.80
2018-08-06T07:10:01.564Z,44.40
2018-08-06T07:12:29.899Z,44.10
2018-08-06T07:14:58.459Z,42.50
2018-08-06T07:17:27.514Z,43.20
2018-08-06T07:19:55.958Z,43.40
2018-08-06T07:22:25.528Z,42.80
2018-08-06T07:24:54.024Z,43.70
2018-08-06T07:27:22.541Z,43.00
2018-08-06T07:29:50.804Z,42.20
2018-08-06T07:32:19.137Z,42.40
2018-08-06T07:34:47.975Z,43.30
2018-08-06T07:37:16.398Z,42.70
2018-08-06T07:39:44.682Z,42.60
2018-08-06T07:42:13.084Z,41.50
2018-08-06T07:44:41.384Z,40.10
2018-08-06T07:47:09.777Z,40.50
2018-08-06T07:49:37.999Z,39.10
2018-08-06T07:54:39.113Z,39.30
2018-08-06T07:57:08.681Z,38.90
2018-08-06T07:59:36.984Z,39.80
2018-08-06T08:02:05.328Z,40.00
2018-08-06T08:04:33.738Z,40.90
2018-08-06T08:07:02.011Z,41.70
2018-08-06T08:18:22.289Z,43.10
2018-08-06T08:20:50.551Z,44.00
2018-08-06T08:23:19.431Z,43.80
2018-08-06T08:25:49.101Z,44.30
2018-08-06T08:28:19.450Z,43.70
2018-08-06T08:30:48.085Z,43.10
2018-08-06T08:33:16.344Z,43.20
2018-08-06T08:35:45.574Z,42.90
2018-08-06T08:38:14.764Z,42.20
2018-08-06T08:40:43.688Z,42.10
2018-08-06T08:43:14.346Z,43.60
2018-08-06T08:45:43.472Z,42.60
2018-08-06T08:53:15.249Z,41.70
2018-08-06T08:55:43.679Z,41.10
2018-08-06T08:58:12.016Z,41.40
2018-08-06T09:03:08.732Z,41.00
2018-08-06T09:05:37.063Z,40.30
2018-08-06T09:08:05.417Z,40.80
2018-08-06T09:10:33.817Z,40.50
2018-08-06T09:13:02.813Z,40.70
2018-08-06T09:15:31.115Z,40.10
2018-08-06T09:17:59.342Z,39.60
2018-08-06T09:20:27.692Z,38.00
2018-08-06T09:25:30.704Z,37.70
2018-08-06T09:27:59.189Z,38.10
2018-08-06T09:30:27.435Z,37.50
2018-08-06T09:32:56.820Z,37.10
2018-08-06T09:35:25.068Z,37.50
2018-08-06T09:37:53.311Z,36.90
2018-08-06T09:40:22.624Z,36.40
2018-08-06T09:42:51.268Z,35.70
2018-08-06T09:45:20.962Z,35.90
2018-08-06T09:47:50.727Z,35.50
2018-08-06T09:50:19.779Z,35.10
2018-08-06T09:52:49.258Z,35.30
2018-08-06T09:55:24.158Z,34.50
2018-08-06T09:57:52.600Z,35.50
2018-08-06T10:00:27.185Z,34.20
2018-08-06T10:05:25.608Z,33.90
2018-08-06T10:07:53.932Z,31.70
2018-08-06T10:10:22.194Z,32.60
2018-08-06T10:12:50.564Z,33.70
2018-08-06T10:15:19.633Z,32.20
2018-08-06T10:17:49.433Z,34.20
2018-08-06T10:20:19.012Z,33.80
2018-08-06T10:22:47.265Z,33.90
2018-08-06T10:25:16.136Z,33.60
2018-08-06T10:27:45.218Z,34.00
2018-08-06T10:30:15.984Z,34.00
2018-08-06T10:32:44.650Z,34.00
2018-08-06T10:35:14.828Z,34.60
2018-08-06T10:37:43.200Z,34.40
2018-08-06T10:40:14.649Z,34.60
2018-08-06T10:42:43.673Z,35.60
2018-08-06T10:45:17.393Z,36.30
2018-08-06T10:47:45.690Z,36.80
2018-08-06T10:50:13.936Z,36.70
2018-08-06T10:52:42.200Z,36.60
2018-08-06T10:55:11.222Z,36.40
2018-08-06T10:57:40.884Z,35.50
2018-08-06T11:02:52.088Z,37.10
2018-08-06T11:05:20.665Z,37.70
2018-08-06T11:07:50.150Z,36.10
2018-08-06T11:10:20.545Z,37.20
2018-08-06T11:12:49.385Z,36.70
2018-08-06T11:15:37.892Z,37.50
2018-08-06T11:18:08.926Z,37.30
2018-08-06T11:20:38.005Z,37.70
2018-08-06T11:23:06.708Z,36.50
2018-08-06T11:25:34.966Z,36.70
2018-08-06T11:28:03.215Z,36.80
2018-08-06T11:30:31.895Z,36.40
2018-08-06T11:33:00.153Z,36.30
2018-08-06T11:38:06.430Z,36.00
2018-08-06T11:40:35.263Z,35.90
2018-08-06T11:43:06.161Z,35.80
2018-08-06T11:46:08.463Z,35.10
2018-08-06T11:48:37.546Z,35.70
2018-08-06T11:51:05.863Z,35.50
2018-08-06T11:53:34.315Z,35.90
2018-08-06T11:56:02.871Z,35.60
2018-08-06T11:58:31.165Z,35.90
2018-08-06T12:00:59.966Z,35.60
2018-08-06T12:03:28.349Z,35.10
2018-08-06T12:05:56.980Z,35.60
2018-08-06T12:08:25.556Z,35.40
2018-08-06T12:10:54.208Z,34.80
2018-08-06T12:13:22.825Z,34.80
2018-08-06T12:15:51.085Z,34.60
2018-08-06T12:18:19.425Z,35.30
2018-08-06T12:20:47.794Z,35.00
2018-08-06T12:23:16.142Z,34.90
2018-08-06T12:25:44.789Z,34.50
2018-08-06T12:30:43.376Z,34.20
2018-08-06T12:33:11.941Z,34.50
2018-08-06T12:35:45.269Z,33.60
2018-08-06T12:38:13.876Z,34.30
2018-08-06T12:40:42.414Z,34.60
2018-08-06T12:43:16.694Z,34.40
2018-08-06T12:45:50.840Z,34.30
2018-08-06T12:48:24.735Z,34.40
2018-08-06T12:50:54.763Z,34.60
2018-08-06T12:53:29.304Z,34.30
2018-08-06T12:55:59.253Z,34.30
2018-08-06T12:58:27.657Z,34.90
2018-08-06T13:00:57.353Z,34.70
2018-08-06T13:03:25.908Z,34.70
2018-08-06T13:05:55.146Z,35.00
2018-08-06T13:08:23.452Z,33.50
2018-08-06T13:10:51.747Z,34.80
2018-08-06T13:13:20.065Z,34.30
2018-08-06T13:15:48.534Z,34.10
2018-08-06T13:18:17.009Z,34.00
2018-08-06T13:20:45.265Z,34.10
2018-08-06T13:23:13.761Z,33.90
2018-08-06T13:25:42.105Z,34.20
2018-08-06T13:28:10.750Z,34.00
2018-08-06T13:30:39.070Z,33.60
2018-08-06T13:33:07.379Z,34.00
2018-08-06T13:35:35.651Z,34.20
2018-08-06T13:38:04.034Z,33.80
2018-08-06T13:40:32.304Z,33.00
2018-08-06T13:43:00.580Z,33.50
2018-08-06T13:45:29.041Z,34.00
2018-08-06T13:47:57.378Z,32.60
2018-08-06T13:50:25.704Z,32.50
2018-08-06T13:52:54.214Z,32.00
2018-08-06T13:55:22.519Z,32.50
2018-08-06T13:57:50.856Z,33.50
2018-08-06T14:00:19.945Z,33.40
2018-08-06T14:02:48.309Z,33.10
2018-08-06T14:05:17.595Z,32.70
2018-08-06T14:07:46.919Z,32.90
2018-08-06T14:10:15.902Z,33.10
2018-08-06T14:12:44.236Z,33.40
2018-08-06T14:15:13.158Z,32.20
2018-08-06T14:17:42.268Z,32.90
2018-08-06T14:20:13.026Z,31.80
2018-08-06T14:22:41.327Z,33.10
2018-08-06T14:25:10.583Z,33.30
2018-08-06T14:27:38.982Z,33.10
2018-08-06T14:30:12.184Z,33.30
2018-08-06T14:32:41.750Z,33.30
2018-08-06T14:35:10.262Z,33.40
2018-08-06T14:37:39.557Z,33.50
2018-08-06T14:40:13.598Z,33.50
2018-08-06T14:42:41.930Z,32.30
2018-08-06T14:45:11.680Z,33.20
2018-08-06T14:47:40.105Z,33.50
2018-08-06T14:50:09.921Z,33.20
2018-08-06T14:52:38.624Z,32.90
2018-08-06T14:55:07.651Z,33.20
2018-08-06T14:57:35.934Z,33.30
2018-08-06T15:00:23.197Z,33.20
2018-08-06T15:02:52.617Z,33.20
2018-08-06T15:05:21.140Z,33.40
2018-08-06T15:07:49.537Z,33.10
2018-08-06T15:10:18.178Z,33.20
2018-08-06T15:12:46.582Z,32.90
2018-08-06T15:15:16.284Z,32.20
2018-08-06T15:17:45.381Z,33.00
2018-08-06T15:20:15.121Z,32.70
2018-08-06T15:22:45.302Z,32.60
2018-08-06T15:25:16.356Z,32.60
2018-08-06T15:27:45.179Z,32.80
2018-08-06T15:30:14.241Z,34.10
2018-08-06T15:32:43.017Z,33.30
2018-08-06T15:35:12.083Z,33.60
2018-08-06T15:37:41.383Z,34.50
2018-08-06T15:40:13.233Z,34.30
2018-08-06T15:42:42.019Z,34.50
2018-08-06T15:45:11.390Z,34.20
2018-08-06T15:47:40.171Z,33.80
2018-08-06T15:50:11.513Z,36.70
2018-08-06T15:52:40.867Z,37.20
2018-08-06T15:55:09.307Z,36.40
2018-08-06T15:57:39.132Z,36.90
2018-08-06T16:00:13.246Z,36.50
2018-08-06T16:02:42.127Z,37.10
2018-08-06T16:05:12.832Z,37.20
2018-08-06T16:07:41.274Z,37.40
2018-08-06T16:10:10.980Z,37.40
2018-08-06T16:12:39.420Z,37.90
2018-08-06T16:15:09.643Z,38.20
2018-08-06T16:17:38.538Z,37.70
2018-08-06T16:20:09.002Z,37.90
2018-08-06T16:22:37.574Z,37.50
2018-08-06T16:25:06.612Z,37.80
2018-08-06T16:27:34.913Z,38.20
2018-08-06T16:30:03.378Z,37.90
2018-08-06T16:32:31.684Z,38.10
2018-08-06T16:34:59.972Z,38.20
2018-08-06T16:37:28.288Z,37.70
2018-08-06T16:39:56.805Z,38.00
2018-08-06T16:42:25.075Z,38.50
2018-08-06T16:44:53.401Z,37.40
2018-08-06T16:47:21.724Z,38.30
2018-08-06T16:52:18.132Z,38.10
2018-08-06T16:54:46.327Z,38.70
2018-08-06T16:57:14.715Z,37.80
2018-08-06T16:59:42.948Z,38.40
2018-08-06T17:02:11.243Z,37.90
2018-08-06T17:04:39.497Z,37.60
2018-08-06T17:07:08.401Z,38.50
2018-08-06T17:09:36.660Z,37.60
2018-08-06T17:12:05.035Z,37.70
2018-08-06T17:14:34.076Z,37.90
2018-08-06T17:17:02.409Z,38.20
2018-08-06T17:19:30.633Z,38.60
2018-08-06T17:21:59.149Z,38.00
2018-08-06T17:24:27.378Z,38.10
2018-08-06T17:26:56.013Z,37.70
2018-08-06T17:29:24.514Z,38.30
2018-08-06T17:31:52.762Z,38.30
2018-08-06T17:34:21.007Z,38.10
2018-08-06T17:36:49.279Z,38.10
2018-08-06T17:39:17.549Z,38.30
2018-08-06T17:41:46.770Z,38.70
2018-08-06T17:44:15.116Z,38.40
2018-08-06T17:46:43.380Z,39.00
2018-08-06T17:49:12.293Z,38.50
2018-08-06T17:51:40.538Z,38.90
2018-08-06T17:54:08.801Z,39.10
2018-08-06T17:56:37.150Z,38.90
2018-08-06T17:59:06.246Z,39.70
2018-08-06T18:01:34.692Z,39.50
2018-08-06T18:04:03.076Z,39.50
2018-08-06T18:06:31.380Z,40.40
2018-08-06T18:08:59.674Z,41.00
2018-08-06T18:11:27.978Z,41.20
2018-08-06T18:13:56.637Z,41.60
2018-08-06T18:16:25.771Z,42.60
2018-08-06T18:18:54.624Z,42.20
2018-08-06T18:21:24.269Z,42.30
2018-08-06T18:23:52.734Z,42.40
2018-08-06T18:26:22.756Z,43.00
2018-08-06T18:28:51.228Z,43.00
2018-08-06T18:31:21.872Z,44.00
2018-08-06T18:33:50.291Z,44.90
2018-08-06T18:36:18.872Z,44.20
2018-08-06T18:38:47.160Z,45.10
2018-08-06T18:41:15.402Z,45.00
2018-08-06T18:43:43.630Z,45.60
2018-08-06T18:46:11.990Z,45.80
2018-08-06T18:48:41.097Z,45.40
2018-08-06T18:51:09.412Z,45.90
2018-08-06T18:53:37.748Z,45.60
2018-08-06T18:56:06.055Z,46.20
2018-08-06T18:58:35.004Z,47.90
2018-08-06T19:01:03.266Z,47.20
2018-08-06T19:03:32.522Z,48.40
2018-08-06T19:06:01.542Z,49.30
2018-08-06T19:08:29.805Z,48.90
2018-08-06T19:10:59.853Z,48.80
2018-08-06T19:13:35.922Z,48.70
2018-08-06T19:16:04.150Z,49.00
2018-08-06T19:18:40.560Z,49.10
2018-08-06T19:21:08.825Z,49.40
2018-08-06T19:23:37.796Z,49.60
2018-08-06T19:26:06.038Z,49.80
2018-08-06T19:28:34.329Z,50.40
2018-08-06T19:31:07.973Z,51.20
2018-08-06T19:33:36.220Z,51.60
2018-08-06T19:36:04.433Z,51.90
2018-08-06T19:38:32.685Z,52.00
2018-08-06T19:41:01.950Z,52.80
2018-08-06T19:43:35.677Z,52.80
2018-08-06T19:46:03.933Z,52.80
2018-08-06T19:48:32.214Z,52.60
2018-08-06T19:51:00.841Z,54.30
2018-08-06T19:53:29.104Z,54.80
2018-08-06T19:56:03.157Z,54.50
2018-08-06T19:58:31.394Z,54.10
2018-08-06T20:01:00.604Z,54.00
2018-08-06T20:03:28.832Z,54.40
2018-08-06T20:05:58.080Z,53.80
2018-08-06T20:08:26.389Z,53.80
2018-08-06T20:10:54.653Z,54.50
2018-08-06T20:13:22.890Z,53.60
2018-08-06T20:15:51.134Z,53.30
2018-08-06T20:18:19.371Z,54.40
2018-08-06T20:20:47.610Z,54.80
2018-08-06T20:23:15.867Z,54.80
2018-08-06T20:25:44.120Z,55.00
2018-08-06T20:28:13.333Z,55.10
2018-08-06T20:30:41.579Z,55.60
2018-08-06T20:33:09.848Z,55.70
2018-08-06T20:35:38.087Z,56.10
2018-08-06T20:38:06.778Z,55.70
2018-08-06T20:40:35.046Z,56.30
2018-08-06T20:43:03.410Z,56.40
2018-08-06T20:45:31.671Z,57.10
2018-08-06T20:47:59.961Z,57.10
2018-08-06T20:50:28.252Z,58.50
2018-08-06T20:52:56.504Z,59.10
2018-08-06T20:55:24.785Z,59.00
2018-08-06T20:57:53.065Z,59.60
2018-08-06T21:00:24.062Z,60.30
2018-08-06T21:02:52.810Z,61.40
2018-08-06T21:05:21.124Z,60.10
2018-08-06T21:07:49.417Z,62.10
2018-08-06T21:10:18.497Z,62.90
2018-08-06T21:12:47.316Z,61.50
2018-08-06T21:15:15.956Z,62.30
2018-08-06T21:17:44.430Z,62.60
2018-08-06T21:20:14.178Z,63.30
2018-08-06T21:22:44.174Z,63.90
2018-08-06T21:25:13.004Z,63.70
2018-08-06T21:27:42.527Z,63.20
2018-08-06T21:30:15.885Z,63.50
2018-08-06T21:32:51.025Z,63.90
2018-08-06T21:35:20.217Z,64.40
2018-08-06T21:37:49.692Z,64.30
2018-08-06T21:40:18.696Z,65.40
2018-08-06T21:42:47.023Z,66.10
2018-08-06T21:45:15.316Z,65.60
2018-08-06T21:47:43.601Z,65.40
2018-08-06T21:50:13.326Z,65.30
2018-08-06T21:52:41.579Z,65.70
2018-08-06T21:57:38.899Z,65.40
2018-08-06T22:00:11.962Z,66.20
2018-08-06T22:02:40.669Z,66.30
2018-08-06T22:05:08.963Z,66.60
2018-08-06T22:07:37.275Z,66.10
2018-08-06T22:10:05.609Z,66.40
2018-08-06T22:12:33.873Z,67.00
2018-08-06T22:15:02.153Z,66.60
2018-08-06T22:17:31.184Z,67.10
2018-08-06T22:20:00.306Z,66.10
2018-08-06T22:22:28.576Z,64.70
2018-08-06T22:24:56.801Z,66.80
2018-08-06T22:27:25.117Z,66.80
2018-08-06T22:29:53.384Z,67.40
2018-08-06T22:32:21.762Z,67.10
2018-08-06T22:34:50.400Z,66.20
2018-08-06T22:37:18.664Z,65.30
2018-08-06T22:39:46.953Z,64.80
2018-08-06T22:42:15.181Z,64.40
2018-08-06T22:44:43.487Z,64.10
2018-08-06T22:47:11.748Z,63.80
2018-08-06T22:49:47.425Z,63.50
2018-08-06T22:52:15.733Z,63.90
2018-08-06T22:54:44.361Z,64.30
2018-08-06T22:57:12.701Z,65.40
2018-08-06T22:59:40.978Z,64.80
2018-08-06T23:02:09.272Z,64.50
2018-08-06T23:04:37.494Z,64.50
2018-08-06T23:07:05.829Z,64.40
2018-08-06T23:09:34.277Z,64.90
2018-08-06T23:12:02.579Z,66.40
2018-08-06T23:14:30.833Z,65.70
2018-08-06T23:16:59.094Z,66.00
2018-08-06T23:19:27.332Z,65.20
2018-08-06T23:21:55.639Z,64.70
2018-08-06T23:24:23.898Z,65.10
2018-08-06T23:26:52.145Z,64.70
2018-08-06T23:29:20.432Z,64.40
2018-08-06T23:31:48.709Z,64.90
2018-08-06T23:34:16.939Z,65.80
2018-08-06T23:36:45.156Z,66.00
2018-08-06T23:41:41.441Z,65.90
2018-08-06T23:44:09.706Z,66.40
2018-08-06T23:46:38.041Z,66.50
2018-08-06T23:49:06.272Z,66.80
2018-08-06T23:51:40.933Z,66.80
2018-08-06T23:54:09.264Z,66.80
2018-08-06T23:56:38.378Z,66.40
2018-08-06T23:59:06.756Z,66.70
